createdAt,value
2022-10-17T00:01:14.805Z,12.60
2022-10-17T00:03:43.307Z,10.40
2022-10-17T00:06:14.826Z,9.00
2022-10-17T00:08:44.772Z,10.40
2022-10-17T00:11:19.478Z,14.80
2022-10-17T00:13:49.944Z,13.00
2022-10-17T00:16:27.254Z,11.10
2022-10-17T00:18:56.252Z,11.50
2022-10-17T00:21:25.576Z,10.80
2022-10-17T00:23:54.631Z,10.80
2022-10-17T00:26:23.517Z,9.90
2022-10-17T00:28:53.567Z,16.60
2022-10-17T00:31:24.015Z,9.70
2022-10-17T00:33:53.258Z,15.10
2022-10-17T00:36:24.855Z,18.60
2022-10-17T00:38:59.346Z,13.80
2022-10-17T00:41:31.499Z,14.20
2022-10-17T00:44:28.446Z,15.90
2022-10-17T00:46:59.536Z,13.40
2022-10-17T00:49:30.573Z,21.50
2022-10-17T00:52:06.541Z,14.60
2022-10-17T00:54:41.218Z,14.50
2022-10-17T00:57:10.212Z,11.80
2022-10-17T00:59:42.329Z,11.00
2022-10-17T01:02:14.542Z,15.40
2022-10-17T01:04:46.916Z,9.10
2022-10-17T01:07:15.476Z,12.20
2022-10-17T01:09:46.007Z,11.40
2022-10-17T01:12:22.795Z,15.10
2022-10-17T01:15:09.479Z,9.50
2022-10-17T01:17:48.227Z,11.40
2022-10-17T01:20:39.916Z,13.40
2022-10-17T01:23:33.214Z,9.20
2022-10-17T01:26:11.202Z,11.50
2022-10-17T01:29:07.177Z,12.20
2022-10-17T01:31:49.314Z,12.40
2022-10-17T01:34:55.390Z,11.60
2022-10-17T01:37:40.015Z,16.30
2022-10-17T01:42:52.448Z,9.10
2022-10-17T01:45:35.696Z,9.00
2022-10-17T01:48:12.256Z,10.10
2022-10-17T01:50:52.934Z,12.30
2022-10-17T01:53:35.031Z,9.10
2022-10-17T01:56:07.593Z,12.30
2022-10-17T01:58:49.624Z,10.40
2022-10-17T02:01:21.409Z,12.60
2022-10-17T02:03:52.215Z,11.60
2022-10-17T02:06:20.734Z,10.70
2022-10-17T02:08:51.491Z,10.50
2022-10-17T02:11:26.402Z,12.60
2022-10-17T02:14:25.269Z,12.10
2022-10-17T02:16:53.698Z,15.70
2022-10-17T02:20:03.870Z,24.30
2022-10-17T02:22:42.223Z,12.90
2022-10-17T02:25:34.903Z,20.20
2022-10-17T02:28:15.839Z,10.10
2022-10-17T02:31:07.334Z,11.00
2022-10-17T02:34:31.392Z,10.90
2022-10-17T02:37:02.310Z,11.60
2022-10-17T02:39:32.975Z,13.00
2022-10-17T02:42:06.546Z,12.80
2022-10-17T02:44:37.925Z,14.30
2022-10-17T02:47:20.937Z,10.10
2022-10-17T02:49:52.896Z,10.30
2022-10-17T02:52:30.125Z,11.80
2022-10-17T02:55:14.371Z,10.70
2022-10-17T02:57:48.648Z,11.40
2022-10-17T03:02:50.873Z,10.10
2022-10-17T03:05:29.078Z,13.30
2022-10-17T03:07:57.608Z,10.50
2022-10-17T03:10:26.418Z,10.80
2022-10-17T03:12:56.136Z,9.70
2022-10-17T03:15:25.138Z,15.70
2022-10-17T03:17:53.648Z,14.70
2022-10-17T03:20:22.139Z,11.00
2022-10-17T03:22:51.200Z,13.00
2022-10-17T03:25:20.276Z,11.00
2022-10-17T03:27:48.988Z,13.70
2022-10-17T03:30:17.639Z,9.90
2022-10-17T03:32:46.602Z,13.90
2022-10-17T03:35:15.275Z,10.50
2022-10-17T03:37:46.175Z,11.60
2022-10-17T03:40:14.897Z,12.20
2022-10-17T03:42:43.673Z,13.90
2022-10-17T03:45:12.535Z,16.00
2022-10-17T03:47:41.057Z,12.70
2022-10-17T03:50:09.712Z,13.80
2022-10-17T03:52:39.065Z,17.60
2022-10-17T03:55:08.064Z,19.80
2022-10-17T03:57:37.689Z,11.00
2022-10-17T04:00:08.556Z,17.00
2022-10-17T04:02:42.526Z,13.70
2022-10-17T04:05:13.944Z,16.00
2022-10-17T04:07:42.707Z,15.20
2022-10-17T04:10:13.370Z,14.50
2022-10-17T04:12:41.928Z,11.70
2022-10-17T04:15:11.043Z,12.90
2022-10-17T04:17:39.642Z,20.80
2022-10-17T04:20:08.768Z,15.60
2022-10-17T04:22:37.424Z,19.30
2022-10-17T04:25:06.473Z,14.30
2022-10-17T04:27:37.541Z,18.60
2022-10-17T04:30:06.521Z,18.80
2022-10-17T04:32:39.222Z,15.30
2022-10-17T04:35:14.678Z,17.20
2022-10-17T04:37:46.880Z,12.10
2022-10-17T04:40:19.261Z,14.30
2022-10-17T04:42:47.949Z,26.60
2022-10-17T04:45:19.582Z,28.70
2022-10-17T04:47:48.616Z,19.40
2022-10-17T04:50:17.156Z,13.70
2022-10-17T04:53:01.854Z,25.40
2022-10-17T04:55:30.715Z,22.20
2022-10-17T04:57:59.283Z,31.50
2022-10-17T05:00:27.803Z,29.80
2022-10-17T05:03:07.141Z,20.40
2022-10-17T05:05:42.692Z,18.70
2022-10-17T05:08:12.336Z,19.00
2022-10-17T05:10:43.878Z,29.90
2022-10-17T05:13:13.094Z,16.70
2022-10-17T05:15:41.943Z,29.20
2022-10-17T05:18:10.367Z,25.20
2022-10-17T05:20:38.934Z,52.20
2022-10-17T05:23:08.003Z,19.10
2022-10-17T05:25:39.617Z,24.40
2022-10-17T05:28:08.112Z,19.70
2022-10-17T05:30:37.752Z,21.40
2022-10-17T05:33:07.669Z,14.70
2022-10-17T05:35:36.866Z,24.90
2022-10-17T05:38:05.467Z,20.40
2022-10-17T05:40:34.909Z,20.90
2022-10-17T05:43:04.575Z,15.10
2022-10-17T05:45:33.377Z,12.50
2022-10-17T05:48:02.289Z,16.20
2022-10-17T05:50:30.853Z,14.00
2022-10-17T05:53:10.230Z,15.50
2022-10-17T05:55:42.413Z,12.60
2022-10-17T05:58:17.695Z,16.20
2022-10-17T06:00:52.298Z,17.80
2022-10-17T06:03:20.780Z,25.50
2022-10-17T06:05:49.619Z,25.00
2022-10-17T06:08:18.440Z,14.90
2022-10-17T06:10:51.157Z,21.90
2022-10-17T06:13:20.481Z,22.20
2022-10-17T06:15:52.075Z,16.50
2022-10-17T06:18:20.931Z,24.00
2022-10-17T06:20:49.697Z,12.90
2022-10-17T06:23:20.024Z,18.40
2022-10-17T06:26:04.520Z,16.80
2022-10-17T06:28:33.835Z,17.20
2022-10-17T06:31:10.124Z,30.50
2022-10-17T06:33:38.802Z,12.70
2022-10-17T06:36:11.541Z,15.40
2022-10-17T06:38:40.677Z,23.80
2022-10-17T06:41:19.173Z,25.90
2022-10-17T06:43:48.377Z,13.30
2022-10-17T06:46:46.693Z,16.40
2022-10-17T06:49:17.817Z,27.40
2022-10-17T06:54:24.515Z,20.90
2022-10-17T06:57:08.467Z,13.50
2022-10-17T06:59:53.678Z,20.70
2022-10-17T07:02:27.722Z,21.20
2022-10-17T07:04:58.318Z,18.70
2022-10-17T07:07:27.117Z,13.30
2022-10-17T07:09:55.962Z,12.80
2022-10-17T07:12:24.993Z,20.40
2022-10-17T07:14:53.471Z,21.00
2022-10-17T07:17:21.969Z,29.20
2022-10-17T07:19:50.998Z,18.20
2022-10-17T07:22:19.776Z,18.80
2022-10-17T07:27:29.631Z,16.60
2022-10-17T07:29:58.204Z,28.80
2022-10-17T07:32:47.859Z,18.40
2022-10-17T07:35:16.322Z,29.30
2022-10-17T07:37:44.838Z,19.00
2022-10-17T07:40:15.909Z,18.30
2022-10-17T07:42:44.630Z,16.40
2022-10-17T07:45:15.957Z,14.70
2022-10-17T07:47:44.822Z,16.50
2022-10-17T07:50:20.413Z,18.90
2022-10-17T07:52:48.864Z,16.50
2022-10-17T07:55:17.390Z,22.10
2022-10-17T07:57:45.921Z,25.10
2022-10-17T08:00:14.652Z,26.10
2022-10-17T08:02:43.301Z,14.40
2022-10-17T08:05:11.883Z,20.30
2022-10-17T08:07:41.636Z,16.60
2022-10-17T08:10:13.095Z,17.00
2022-10-17T08:12:41.907Z,18.60
2022-10-17T08:15:11.250Z,15.90
2022-10-17T08:17:40.354Z,18.60
2022-10-17T08:20:09.500Z,20.10
2022-10-17T08:22:37.949Z,17.70
2022-10-17T08:25:07.165Z,12.00
2022-10-17T08:27:36.509Z,22.60
2022-10-17T08:30:05.395Z,13.70
2022-10-17T08:32:33.980Z,19.20
2022-10-17T08:35:02.742Z,19.10
2022-10-17T08:37:32.842Z,14.40
2022-10-17T08:40:01.879Z,16.00
2022-10-17T08:42:39.248Z,16.90
2022-10-17T08:45:21.315Z,17.30
2022-10-17T08:47:54.687Z,15.20
2022-10-17T08:50:41.733Z,29.20
2022-10-17T08:53:31.867Z,15.70
2022-10-17T08:56:11.955Z,30.30
2022-10-17T08:58:43.764Z,13.30
2022-10-17T09:01:41.452Z,14.90
2022-10-17T09:04:34.373Z,16.60
2022-10-17T09:07:24.003Z,16.10
2022-10-17T09:10:17.358Z,25.20
2022-10-17T09:13:05.331Z,14.20
2022-10-17T09:15:57.711Z,14.50
2022-10-17T09:18:43.328Z,17.00
2022-10-17T09:21:27.761Z,20.50
2022-10-17T09:24:09.381Z,18.60
2022-10-17T09:26:40.740Z,22.20
2022-10-17T09:29:27.707Z,18.50
2022-10-17T09:32:11.542Z,16.40
2022-10-17T09:34:40.030Z,19.90
2022-10-17T09:37:14.761Z,27.10
2022-10-17T09:39:44.443Z,14.20
2022-10-17T09:42:17.524Z,21.40
2022-10-17T09:44:56.124Z,22.20
2022-10-17T09:47:35.099Z,20.80
2022-10-17T09:50:04.389Z,23.80
2022-10-17T09:52:41.260Z,29.20
2022-10-17T09:55:20.567Z,18.50
2022-10-17T09:58:09.750Z,18.00
2022-10-17T10:00:41.904Z,18.30
2022-10-17T10:03:13.432Z,19.20
2022-10-17T10:05:43.627Z,23.10
2022-10-17T10:08:23.640Z,22.50
2022-10-17T10:11:03.703Z,19.50
2022-10-17T10:13:34.892Z,21.40
2022-10-17T10:16:22.406Z,11.00
2022-10-17T10:18:52.232Z,9.60
2022-10-17T10:21:23.970Z,12.70
2022-10-17T10:24:13.593Z,10.80
2022-10-17T10:26:47.469Z,12.60
2022-10-17T10:29:41.540Z,13.00
2022-10-17T10:32:29.458Z,20.90
2022-10-17T10:35:00.547Z,16.10
2022-10-17T10:37:42.520Z,11.20
2022-10-17T10:40:18.837Z,17.70
2022-10-17T10:42:50.613Z,11.10
2022-10-17T10:45:46.439Z,17.60
2022-10-17T10:48:24.716Z,9.00
2022-10-17T10:50:56.134Z,9.90
2022-10-17T10:53:47.845Z,19.20
2022-10-17T10:56:35.391Z,11.20
2022-10-17T10:59:13.142Z,10.20
2022-10-17T11:01:47.535Z,11.20
2022-10-17T11:04:37.961Z,9.20
2022-10-17T11:07:16.939Z,9.90
2022-10-17T11:10:08.385Z,12.10
2022-10-17T11:12:42.093Z,8.20
2022-10-17T11:15:34.254Z,11.40
2022-10-17T11:18:08.850Z,14.50
2022-10-17T11:20:51.880Z,8.80
2022-10-17T11:23:38.943Z,10.10
2022-10-17T11:26:16.289Z,12.80
2022-10-17T11:28:44.820Z,10.70
2022-10-17T11:31:16.134Z,11.30
2022-10-17T11:33:47.376Z,8.80
2022-10-17T11:36:18.528Z,17.20
2022-10-17T11:38:55.923Z,10.70
2022-10-17T11:41:55.423Z,12.00
2022-10-17T11:44:34.433Z,11.30
2022-10-17T11:47:32.042Z,12.20
2022-10-17T11:53:10.256Z,13.40
2022-10-17T11:55:39.578Z,11.00
2022-10-17T11:58:36.580Z,10.60
2022-10-17T12:01:34.717Z,12.60
2022-10-17T12:04:21.494Z,17.20
2022-10-17T12:07:15.953Z,9.90
2022-10-17T12:09:57.322Z,21.20
2022-10-17T12:12:27.451Z,15.00
2022-10-17T12:15:20.949Z,14.20
2022-10-17T12:17:59.415Z,11.50
2022-10-17T12:20:29.242Z,13.50
2022-10-17T12:23:06.776Z,9.20
2022-10-17T12:28:15.309Z,14.40
2022-10-17T12:31:33.653Z,10.10
2022-10-17T12:34:04.595Z,14.20
2022-10-17T12:36:33.371Z,12.60
2022-10-17T12:39:01.938Z,17.20
2022-10-17T12:41:40.108Z,18.10
2022-10-17T12:44:15.184Z,15.10
2022-10-17T12:47:05.808Z,20.60
2022-10-17T12:49:43.904Z,17.30
2022-10-17T12:52:17.595Z,17.50
2022-10-17T12:57:47.343Z,10.80
2022-10-17T13:00:37.436Z,15.10
2022-10-17T13:03:12.348Z,9.10
2022-10-17T13:05:53.003Z,20.00
2022-10-17T13:08:26.041Z,11.00
2022-10-17T13:10:56.385Z,19.80
2022-10-17T13:13:40.571Z,12.60
2022-10-17T13:16:09.598Z,52.30
2022-10-17T13:18:38.157Z,33.20
2022-10-17T13:21:16.779Z,16.30
2022-10-17T13:23:47.830Z,14.90
2022-10-17T13:26:25.979Z,20.00
2022-10-17T13:29:03.116Z,32.40
2022-10-17T13:31:35.714Z,14.70
2022-10-17T13:34:06.999Z,11.40
2022-10-17T13:36:36.099Z,9.80
2022-10-17T13:39:12.468Z,9.20
2022-10-17T13:41:43.603Z,19.60
2022-10-17T13:44:18.263Z,13.80
2022-10-17T13:46:47.390Z,7.10
2022-10-17T13:49:19.080Z,11.90
2022-10-17T13:51:51.148Z,10.20
2022-10-17T13:54:40.523Z,10.90
2022-10-17T13:57:35.947Z,10.10
2022-10-17T14:00:12.407Z,14.80
2022-10-17T14:02:41.783Z,10.60
2022-10-17T14:05:18.290Z,12.20
2022-10-17T14:08:11.769Z,11.50
2022-10-17T14:10:43.235Z,15.60
2022-10-17T14:13:36.164Z,10.90
2022-10-17T14:16:05.207Z,9.10
2022-10-17T14:18:38.171Z,11.20
2022-10-17T14:24:27.050Z,9.30
2022-10-17T14:26:59.764Z,7.90
2022-10-17T14:29:32.330Z,6.80
2022-10-17T14:32:08.759Z,9.20
2022-10-17T14:34:40.859Z,14.30
2022-10-17T14:37:20.353Z,13.90
2022-10-17T14:39:52.555Z,11.70
2022-10-17T14:42:23.078Z,11.60
2022-10-17T14:44:53.931Z,14.30
2022-10-17T14:47:44.030Z,14.50
2022-10-17T14:50:12.964Z,14.70
2022-10-17T14:52:43.336Z,21.90
2022-10-17T14:55:26.066Z,24.90
2022-10-17T14:57:54.898Z,21.80
2022-10-17T15:00:24.411Z,27.80
2022-10-17T15:02:55.307Z,22.10
2022-10-17T15:05:25.173Z,23.20
2022-10-17T15:07:54.127Z,27.80
2022-10-17T15:10:32.984Z,25.60
2022-10-17T15:15:52.460Z,28.30
2022-10-17T15:18:21.042Z,24.50
2022-10-17T15:20:55.375Z,33.70
2022-10-17T15:23:33.375Z,19.00
2022-10-17T15:26:02.196Z,32.20
2022-10-17T15:28:30.807Z,21.80
2022-10-17T15:30:59.364Z,20.90
2022-10-17T15:33:28.009Z,24.90
2022-10-17T15:38:29.912Z,20.60
2022-10-17T15:40:58.330Z,16.50
2022-10-17T15:43:26.855Z,19.80
2022-10-17T15:45:55.402Z,24.60
2022-10-17T15:48:31.171Z,18.20
2022-10-17T15:50:59.773Z,77.00
2022-10-17T15:53:28.295Z,18.80
2022-10-17T15:55:56.873Z,18.20
2022-10-17T15:58:28.474Z,17.40
2022-10-17T16:00:56.995Z,27.80
2022-10-17T16:03:25.755Z,16.40
2022-10-17T16:05:54.168Z,20.40
2022-10-17T16:08:22.719Z,18.00
2022-10-17T16:10:52.290Z,16.90
2022-10-17T16:13:23.790Z,17.70
2022-10-17T16:15:52.758Z,14.00
2022-10-17T16:18:21.424Z,16.90
2022-10-17T16:20:50.199Z,18.40
2022-10-17T16:23:18.903Z,24.90
2022-10-17T16:25:47.463Z,18.50
2022-10-17T16:28:15.966Z,17.40
2022-10-17T16:30:46.437Z,22.80
2022-10-17T16:33:15.230Z,20.60
2022-10-17T16:35:43.962Z,19.70
2022-10-17T16:38:13.074Z,15.20
2022-10-17T16:40:41.878Z,25.30
2022-10-17T16:43:13.859Z,23.80
2022-10-17T16:45:42.413Z,17.30
2022-10-17T16:48:11.046Z,18.70
2022-10-17T16:50:40.464Z,21.30
2022-10-17T16:53:09.220Z,20.10
2022-10-17T16:55:38.376Z,19.00
2022-10-17T16:58:06.812Z,21.40
2022-10-17T17:00:35.402Z,21.10
2022-10-17T17:03:04.212Z,24.70
2022-10-17T17:05:32.877Z,26.90
2022-10-17T17:08:03.647Z,21.20
2022-10-17T17:10:32.196Z,26.80
2022-10-17T17:13:01.923Z,19.30
2022-10-17T17:15:30.880Z,34.80
2022-10-17T17:18:04.855Z,34.20
2022-10-17T17:20:35.061Z,27.00
2022-10-17T17:23:03.569Z,23.60
2022-10-17T17:25:34.688Z,23.30
2022-10-17T17:28:04.171Z,31.80
2022-10-17T17:30:36.155Z,29.40
2022-10-17T17:33:04.659Z,40.20
2022-10-17T17:35:33.121Z,36.20
2022-10-17T17:38:03.245Z,36.60
2022-10-17T17:40:34.797Z,32.20
2022-10-17T17:43:03.470Z,39.90
2022-10-17T17:45:32.025Z,35.00
2022-10-17T17:48:00.740Z,25.50
2022-10-17T17:50:29.508Z,28.30
2022-10-17T17:52:57.942Z,29.20
2022-10-17T17:55:26.492Z,28.20
2022-10-17T17:57:54.970Z,34.00
2022-10-17T18:00:23.556Z,33.10
2022-10-17T18:02:52.271Z,30.70
2022-10-17T18:05:20.838Z,32.00
2022-10-17T18:07:49.500Z,25.90
2022-10-17T18:10:17.979Z,36.00
2022-10-17T18:12:46.422Z,24.50
2022-10-17T18:15:15.183Z,23.60
2022-10-17T18:17:43.689Z,30.30
2022-10-17T18:20:12.671Z,27.20
2022-10-17T18:22:41.366Z,33.80
2022-10-17T18:25:10.117Z,23.90
2022-10-17T18:27:38.700Z,33.10
2022-10-17T18:30:08.732Z,37.50
2022-10-17T18:32:37.347Z,33.90
2022-10-17T18:35:06.250Z,32.60
2022-10-17T18:37:34.989Z,36.60
2022-10-17T18:40:03.818Z,38.60
2022-10-17T18:42:32.584Z,42.50
2022-10-17T18:45:01.194Z,41.00
2022-10-17T18:47:30.387Z,40.30
2022-10-17T18:49:58.900Z,42.70
2022-10-17T18:52:27.314Z,38.80
2022-10-17T18:54:55.995Z,33.70
2022-10-17T18:57:26.362Z,35.90
2022-10-17T18:59:54.858Z,39.00
2022-10-17T19:02:23.904Z,33.10
2022-10-17T19:04:53.617Z,38.70
2022-10-17T19:07:22.081Z,45.10
2022-10-17T19:09:50.629Z,29.80
2022-10-17T19:12:19.097Z,31.50
2022-10-17T19:14:50.180Z,36.80
2022-10-17T19:17:19.565Z,43.30
2022-10-17T19:19:50.535Z,31.20
2022-10-17T19:22:19.475Z,34.30
2022-10-17T19:24:48.039Z,22.90
2022-10-17T19:27:16.468Z,27.10
2022-10-17T19:29:45.066Z,31.30
2022-10-17T19:32:16.743Z,24.70
2022-10-17T19:34:47.882Z,25.40
2022-10-17T19:37:16.277Z,28.00
2022-10-17T19:39:44.952Z,34.90
2022-10-17T19:42:13.455Z,33.20
2022-10-17T19:44:42.088Z,29.60
2022-10-17T19:47:10.668Z,22.20
2022-10-17T19:49:39.339Z,23.00
2022-10-17T19:52:07.907Z,32.10
2022-10-17T19:54:36.454Z,23.20
2022-10-17T19:57:09.515Z,31.10
2022-10-17T19:59:39.136Z,19.90
2022-10-17T20:02:07.699Z,23.50
2022-10-17T20:04:37.565Z,20.80
2022-10-17T20:07:10.658Z,24.60
2022-10-17T20:09:39.300Z,26.30
2022-10-17T20:12:07.802Z,28.30
2022-10-17T20:14:40.873Z,26.20
2022-10-17T20:17:09.672Z,32.70
2022-10-17T20:19:38.177Z,27.80
2022-10-17T20:22:06.685Z,25.80
2022-10-17T20:24:35.181Z,26.70
2022-10-17T20:27:03.660Z,27.10
2022-10-17T20:29:32.256Z,22.30
2022-10-17T20:32:01.252Z,39.50
2022-10-17T20:34:34.880Z,31.50
2022-10-17T20:37:03.420Z,31.10
2022-10-17T20:39:31.936Z,25.60
2022-10-17T20:42:00.465Z,23.70
2022-10-17T20:44:29.018Z,25.20
2022-10-17T20:47:02.313Z,20.50
2022-10-17T20:49:31.554Z,29.70
2022-10-17T20:52:01.021Z,24.00
2022-10-17T20:54:29.940Z,24.00
2022-10-17T20:57:01.215Z,19.20
2022-10-17T20:59:35.378Z,24.70
2022-10-17T21:02:05.538Z,19.50
2022-10-17T21:04:45.945Z,24.00
2022-10-17T21:07:15.744Z,20.60
2022-10-17T21:09:45.608Z,21.80
2022-10-17T21:12:21.700Z,21.60
2022-10-17T21:15:00.137Z,26.80
2022-10-17T21:17:28.627Z,16.90
2022-10-17T21:19:57.194Z,20.30
2022-10-17T21:22:25.723Z,20.40
2022-10-17T21:24:54.236Z,22.60
2022-10-17T21:27:22.816Z,23.90
2022-10-17T21:29:52.289Z,19.20
2022-10-17T21:32:40.119Z,19.60
2022-10-17T21:35:09.464Z,20.10
2022-10-17T21:37:38.035Z,18.80
2022-10-17T21:40:07.004Z,19.90
2022-10-17T21:42:35.495Z,18.00
2022-10-17T21:45:10.593Z,17.00
2022-10-17T21:47:54.985Z,19.90
2022-10-17T21:50:32.633Z,17.20
2022-10-17T21:53:00.993Z,19.40
2022-10-17T21:55:29.527Z,20.00
2022-10-17T21:57:58.024Z,21.50
2022-10-17T22:00:26.504Z,22.00
2022-10-17T22:02:55.034Z,21.70
2022-10-17T22:05:23.605Z,19.10
2022-10-17T22:07:52.081Z,16.90
2022-10-17T22:10:20.526Z,21.50
2022-10-17T22:12:48.984Z,19.90
2022-10-17T22:15:17.506Z,21.00
2022-10-17T22:17:45.954Z,19.00
2022-10-17T22:20:14.609Z,14.20
2022-10-17T22:22:43.044Z,22.70
2022-10-17T22:25:11.590Z,24.10
2022-10-17T22:27:40.154Z,15.90
2022-10-17T22:30:09.253Z,17.20
2022-10-17T22:32:37.743Z,21.30
2022-10-17T22:35:06.709Z,19.00
2022-10-17T22:37:35.220Z,21.90
2022-10-17T22:40:05.614Z,22.50
2022-10-17T22:42:34.852Z,19.00
2022-10-17T22:45:04.069Z,24.60
2022-10-17T22:47:32.793Z,19.80
2022-10-17T22:50:01.600Z,25.90
2022-10-17T22:52:30.361Z,23.80
2022-10-17T22:54:59.319Z,19.60
2022-10-17T22:57:27.894Z,21.10
2022-10-17T22:59:56.278Z,19.50
2022-10-17T23:02:24.778Z,22.30
2022-10-17T23:04:53.297Z,18.00
2022-10-17T23:07:22.047Z,16.80
2022-10-17T23:09:50.972Z,19.80
2022-10-17T23:12:19.932Z,15.30
2022-10-17T23:14:48.525Z,18.70
2022-10-17T23:17:17.816Z,20.80
2022-10-17T23:19:46.301Z,22.60
2022-10-17T23:22:14.720Z,19.70
2022-10-17T23:24:43.174Z,15.20
2022-10-17T23:27:11.795Z,19.60
2022-10-17T23:29:40.371Z,19.50
2022-10-17T23:32:08.751Z,22.70
2022-10-17T23:34:37.276Z,22.70
2022-10-17T23:37:05.723Z,18.70
2022-10-17T23:39:34.235Z,25.30
2022-10-17T23:42:02.840Z,21.80
2022-10-17T23:44:31.381Z,32.60
2022-10-17T23:46:59.872Z,22.10
2022-10-17T23:49:28.315Z,21.40
2022-10-17T23:51:56.810Z,19.80
2022-10-17T23:54:25.400Z,22.70
2022-10-17T23:56:53.819Z,24.00
2022-10-17T23:59:22.291Z,21.00
